Time,TemperatureF,DewpointF,PressureIn,WindDirection,WindDirectionDegrees,WindSpeedMPH,WindSpeedGustMPH,Humidity,HourlyPrecipIn,Conditions,Clouds,dailyrainin,SoftwareType,DateUTC
2013-05-26 00:01:00,76.5,65.1,29.99,South,177,0.0,0.0,68,0.00,,,0.00,WeatherDisplay:10.37,2013-05-26 05:01:00,
2013-05-26 00:06:00,76.5,65.1,29.99,South,177,0.0,0.0,68,0.00,,,0.00,WeatherDisplay:10.37,2013-05-26 05:06:00,
2013-05-26 00:11:00,74.2,65.0,29.99,South,177,1.1,0.0,73,0.00,,,0.00,WeatherDisplay:10.37,2013-05-26 05:11:00,
2013-05-26 00:16:00,74.1,64.9,29.99,South,177,0.0,0.0,73,0.00,,,0.00,WeatherDisplay:10.37,2013-05-26 05:16:00,
2013-05-26 00:21:00,76.5,65.1,29.99,South,177,0.0,0.0,68,0.00,,,0.00,WeatherDisplay:10.37,2013-05-26 05:21:00,
2013-05-26 00:26:00,76.5,65.1,29.99,South,177,0.0,0.0,68,0.00,,,0.00,WeatherDisplay:10.37,2013-05-26 05:26:00,
2013-05-26 00:31:00,73.9,64.7,29.99,South,177,0.0,0.0,73,0.00,,,0.00,WeatherDisplay:10.37,2013-05-26 05:31:00,
2013-05-26 00:36:00,73.9,64.7,29.99,South,177,0.0,0.0,73,0.00,,,0.00,WeatherDisplay:10.37,2013-05-26 05:36:00,
2013-05-26 00:41:00,73.9,64.7,29.99,South,177,0.0,0.0,73,0.00,,,0.00,WeatherDisplay:10.37,2013-05-26 05:41:00,
2013-05-26 00:46:00,73.9,64.7,29.99,South,177,0.0,0.0,73,0.00,,,0.00,WeatherDisplay:10.37,2013-05-26 05:46:00,
2013-05-26 00:51:00,73.9,64.7,29.99,South,177,0.0,0.0,73,0.00,,,0.00,WeatherDisplay:10.37,2013-05-26 05:51:00,
2013-05-26 00:56:00,73.9,64.7,29.99,South,177,0.0,0.0,73,0.00,,,0.00,WeatherDisplay:10.37,2013-05-26 05:56:00,
2013-05-26 01:01:00,73.3,64.5,29.99,SSE,154,0.0,0.0,74,0.00,,,0.00,WeatherDisplay:10.37,2013-05-26 06:01:00,
2013-05-26 01:06:00,73.1,64.7,29.98,SSE,150,0.0,0.0,75,0.00,,,0.00,WeatherDisplay:10.37,2013-05-26 06:06:00,
2013-05-26 01:11:00,73.0,64.6,29.98,South,173,1.1,1.1,75,0.00,,,0.00,WeatherDisplay:10.37,2013-05-26 06:11:00,
2013-05-26 01:16:00,72.8,64.8,29.98,SSW,208,0.0,0.0,76,0.00,,,0.00,WeatherDisplay:10.37,2013-05-26 06:16:00,
2013-05-26 01:21:00,72.7,64.7,29.98,SSW,213,1.1,0.0,76,0.00,,,0.00,WeatherDisplay:10.37,2013-05-26 06:21:00,
2013-05-26 01:26:00,72.6,64.6,29.98,SW,219,1.1,1.1,76,0.00,,,0.00,WeatherDisplay:10.37,2013-05-26 06:26:00,
2013-05-26 01:31:00,73.9,64.7,29.99,South,177,0.0,0.0,73,0.00,,,0.00,WeatherDisplay:10.37,2013-05-26 06:31:00,
2013-05-26 01:36:00,72.3,64.7,29.98,SW,214,0.0,0.0,77,0.00,,,0.00,WeatherDisplay:10.37,2013-05-26 06:36:00,
2013-05-26 01:41:00,73.9,64.7,29.99,South,177,0.0,0.0,73,0.00,,,0.00,WeatherDisplay:10.37,2013-05-26 06:41:00,
2013-05-26 01:45:00,73.5,64.7,29.99,South,175,0.0,1.0,74,0.00,CLR,,0.00,WeatherDisplay:10.37,2013-05-26 06:45:00,
2013-05-26 01:46:00,73.9,64.7,29.99,South,177,0.0,0.0,73,0.00,,,0.00,WeatherDisplay:10.37,2013-05-26 06:46:00,
2013-05-26 01:50:00,73.4,64.6,29.99,South,180,0.0,1.0,74,0.00,CLR,,0.00,WeatherDisplay:10.37,2013-05-26 06:50:00,
2013-05-26 01:51:00,73.9,64.7,29.99,South,177,0.0,0.0,73,0.00,,,0.00,WeatherDisplay:10.37,2013-05-26 06:51:00,
2013-05-26 01:55:00,73.4,65.0,29.99,South,180,0.0,1.0,75,0.00,CLR,,0.00,WeatherDisplay:10.37,2013-05-26 06:55:00,
2013-05-26 01:56:00,73.9,64.7,29.99,South,177,0.0,0.0,73,0.00,,,0.00,WeatherDisplay:10.37,2013-05-26 06:56:00,
2013-05-26 02:00:00,73.2,64.8,29.99,South,180,0.0,1.0,75,0.00,CLR,,0.00,WeatherDisplay:10.37,2013-05-26 07:00:00,
2013-05-26 02:01:00,73.9,64.7,29.99,South,177,0.0,0.0,73,0.00,,,0.00,WeatherDisplay:10.37,2013-05-26 07:01:00,
2013-05-26 02:05:00,73.1,64.7,29.98,South,180,0.0,1.0,75,0.00,CLR,,0.00,WeatherDisplay:10.37,2013-05-26 07:05:00,
2013-05-26 02:06:00,71.7,64.5,29.96,ESE,111,0.0,0.0,78,0.00,,,0.00,WeatherDisplay:10.37,2013-05-26 07:06:00,
2013-05-26 02:10:00,72.9,64.5,29.98,South,180,0.0,1.0,75,0.00,CLR,,0.00,WeatherDisplay:10.37,2013-05-26 07:10:00,
2013-05-26 02:11:00,71.6,64.7,29.97,ESE,106,1.1,0.0,79,0.00,,,0.00,WeatherDisplay:10.37,2013-05-26 07:11:00,
2013-05-26 02:15:00,71.7,64.5,29.96,ESE,111,0.0,0.0,78,0.00,,,0.00,WeatherDisplay:10.37,2013-05-26 07:15:00,
2013-05-26 02:20:00,71.5,64.6,29.97,South,188,3.5,3.5,79,0.00,,,0.00,WeatherDisplay:10.37,2013-05-26 07:20:00,
2013-05-26 02:25:00,71.7,64.5,29.96,ESE,111,0.0,0.0,78,0.00,,,0.00,WeatherDisplay:10.37,2013-05-26 07:25:00,
2013-05-26 02:30:00,71.6,64.7,29.98,South,169,2.3,2.3,79,0.00,,,0.00,WeatherDisplay:10.37,2013-05-26 07:30:00,
2013-05-26 02:35:00,71.6,64.7,29.97,South,180,3.5,3.5,79,0.00,,,0.00,WeatherDisplay:10.37,2013-05-26 07:35:00,
2013-05-26 02:40:00,71.6,64.7,29.97,South,180,3.5,3.5,79,0.00,,,0.00,WeatherDisplay:10.37,2013-05-26 07:40:00,
2013-05-26 02:45:00,71.7,64.8,29.97,SSE,162,2.3,2.3,79,0.00,,,0.00,WeatherDisplay:10.37,2013-05-26 07:45:00,
2013-05-26 02:50:00,71.6,64.7,29.97,South,180,3.5,3.5,79,0.00,,,0.00,WeatherDisplay:10.37,2013-05-26 07:50:00,
2013-05-26 02:55:00,71.8,64.9,29.98,SSE,158,3.5,3.5,79,0.00,,,0.00,WeatherDisplay:10.37,2013-05-26 07:55:00,
2013-05-26 03:00:00,71.8,64.9,29.98,South,190,3.5,3.5,79,0.00,,,0.00,WeatherDisplay:10.37,2013-05-26 08:00:00,
2013-05-26 03:05:00,71.9,65.0,29.98,South,171,1.1,2.0,79,0.00,,,0.00,WeatherDisplay:10.37,2013-05-26 08:05:00,
2013-05-26 03:10:00,71.9,65.0,29.98,South,188,1.1,1.1,79,0.00,,,0.00,WeatherDisplay:10.37,2013-05-26 08:10:00,
2013-05-26 03:15:00,72.0,64.8,29.98,SSE,166,2.3,2.3,78,0.00,,,0.00,WeatherDisplay:10.37,2013-05-26 08:15:00,
2013-05-26 03:20:00,71.6,64.7,29.97,South,180,3.5,3.5,79,0.00,,,0.00,WeatherDisplay:10.37,2013-05-26 08:20:00,
2013-05-26 03:25:00,72.0,64.8,29.98,South,175,2.3,2.3,78,0.00,,,0.00,WeatherDisplay:10.37,2013-05-26 08:25:00,
2013-05-26 03:30:00,71.6,64.7,29.97,South,180,3.5,3.5,79,0.00,,,0.00,WeatherDisplay:10.37,2013-05-26 08:30:00,
2013-05-26 03:35:00,71.6,64.7,29.97,South,180,3.5,3.5,79,0.00,,,0.00,WeatherDisplay:10.37,2013-05-26 08:35:00,
2013-05-26 03:40:00,71.6,64.7,29.97,South,180,3.5,3.5,79,0.00,,,0.00,WeatherDisplay:10.37,2013-05-26 08:40:00,
2013-05-26 03:45:00,71.6,64.7,29.97,South,180,3.5,3.5,79,0.00,,,0.00,WeatherDisplay:10.37,2013-05-26 08:45:00,
2013-05-26 03:50:00,71.7,64.8,29.97,South,173,3.5,3.5,79,0.00,,,0.00,WeatherDisplay:10.37,2013-05-26 08:50:00,
2013-05-26 03:55:00,71.6,64.7,29.97,South,180,3.5,3.5,79,0.00,,,0.00,WeatherDisplay:10.37,2013-05-26 08:55:00,
2013-05-26 04:00:00,71.5,64.6,29.96,SSW,199,3.5,0.0,79,0.00,,,0.00,WeatherDisplay:10.37,2013-05-26 09:00:00,
2013-05-26 04:05:00,71.3,64.8,29.95,South,174,3.5,3.5,80,0.00,,,0.00,WeatherDisplay:10.37,2013-05-26 09:05:00,
2013-05-26 04:10:00,71.5,64.6,29.96,South,173,3.5,3.5,79,0.00,,,0.00,WeatherDisplay:10.37,2013-05-26 09:10:00,
2013-05-26 04:15:00,71.1,64.6,29.95,SE,130,2.3,2.3,80,0.00,,,0.00,WeatherDisplay:10.37,2013-05-26 09:15:00,
2013-05-26 04:20:00,71.5,64.6,29.96,South,173,3.5,3.5,79,0.00,,,0.00,WeatherDisplay:10.37,2013-05-26 09:20:00,
2013-05-26 04:25:00,70.7,64.6,29.95,ENE,63,3.5,3.5,81,0.00,,,0.00,WeatherDisplay:10.37,2013-05-26 09:25:00,
2013-05-26 04:30:00,70.7,64.6,29.95,SSW,210,2.3,2.3,81,0.00,,,0.00,WeatherDisplay:10.37,2013-05-26 09:30:00,
2013-05-26 04:35:00,70.6,64.5,29.95,South,176,3.5,3.5,81,0.00,,,0.00,WeatherDisplay:10.37,2013-05-26 09:35:00,
2013-05-26 04:40:00,70.5,64.7,29.95,SSE,148,0.0,0.1,82,0.00,,,0.00,WeatherDisplay:10.37,2013-05-26 09:40:00,
2013-05-26 04:45:00,71.5,64.6,29.96,South,173,3.5,3.5,79,0.00,,,0.00,WeatherDisplay:10.37,2013-05-26 09:45:00,
2013-05-26 04:50:00,71.5,64.6,29.96,South,173,3.5,3.5,79,0.00,,,0.00,WeatherDisplay:10.37,2013-05-26 09:50:00,
2013-05-26 04:55:00,70.2,64.4,29.94,SSE,165,2.3,2.3,82,0.00,,,0.00,WeatherDisplay:10.37,2013-05-26 09:55:00,
2013-05-26 05:00:00,70.1,64.7,29.94,SSW,198,2.3,2.3,83,0.00,,,0.00,WeatherDisplay:10.37,2013-05-26 10:00:00,
2013-05-26 05:05:00,70.3,64.5,29.94,South,182,2.3,0.0,82,0.00,,,0.00,WeatherDisplay:10.37,2013-05-26 10:05:00,
2013-05-26 05:10:00,69.9,64.5,29.94,SW,223,3.5,3.5,83,0.00,,,0.00,WeatherDisplay:10.37,2013-05-26 10:10:00,
2013-05-26 05:15:00,70.3,64.5,29.94,South,182,2.3,0.0,82,0.00,,,0.00,WeatherDisplay:10.37,2013-05-26 10:15:00,
2013-05-26 05:20:00,69.9,64.5,29.94,SSE,165,2.3,2.3,83,0.00,,,0.00,WeatherDisplay:10.37,2013-05-26 10:20:00,
2013-05-26 05:25:00,70.0,64.9,29.94,South,183,4.6,4.6,84,0.00,,,0.00,WeatherDisplay:10.37,2013-05-26 10:25:00,
2013-05-26 05:30:00,70.0,64.9,29.94,South,188,2.3,2.3,84,0.00,CLR,,0.00,WeatherDisplay:10.37,2013-05-26 10:30:00,
2013-05-26 05:35:00,70.0,64.6,29.95,WSW,249,2.3,2.3,83,0.00,CLR,,0.00,WeatherDisplay:10.37,2013-05-26 10:35:00,
2013-05-26 05:40:00,70.0,64.9,29.94,South,188,2.3,2.3,84,0.00,CLR,,0.00,WeatherDisplay:10.37,2013-05-26 10:40:00,
2013-05-26 05:45:00,70.0,64.9,29.94,South,188,2.3,2.3,84,0.00,CLR,,0.00,WeatherDisplay:10.37,2013-05-26 10:45:00,
2013-05-26 05:50:00,69.8,65.1,29.95,South,190,3.5,0.0,85,0.00,CLR,,0.00,WeatherDisplay:10.37,2013-05-26 10:50:00,
2013-05-26 05:55:00,69.7,64.6,29.94,WSW,242,1.1,0.0,84,0.00,CLR,,0.00,WeatherDisplay:10.37,2013-05-26 10:55:00,
2013-05-26 06:00:00,69.6,64.5,29.94,NW,325,1.1,0.0,84,0.00,CLR,,0.00,WeatherDisplay:10.37,2013-05-26 11:00:00,
2013-05-26 06:05:00,69.5,64.5,29.94,South,186,0.0,0.0,84,0.00,CLR,,0.00,WeatherDisplay:10.37,2013-05-26 11:05:00,
2013-05-26 06:10:00,69.4,64.7,29.94,SSW,194,3.5,3.5,85,0.00,CLR,,0.00,WeatherDisplay:10.37,2013-05-26 11:10:00,
2013-05-26 06:15:00,69.3,64.6,29.95,South,190,1.1,1.1,85,0.00,CLR,,0.00,WeatherDisplay:10.37,2013-05-26 11:15:00,
2013-05-26 06:20:00,69.5,64.5,29.94,South,186,0.0,0.0,84,0.00,CLR,,0.00,WeatherDisplay:10.37,2013-05-26 11:20:00,
2013-05-26 06:25:00,69.5,64.5,29.94,South,186,0.0,0.0,84,0.00,CLR,,0.00,WeatherDisplay:10.37,2013-05-26 11:25:00,
2013-05-26 06:30:00,69.5,64.8,29.95,South,169,2.3,2.3,85,0.00,CLR,,0.00,WeatherDisplay:10.37,2013-05-26 11:30:00,
2013-05-26 06:35:00,69.5,64.5,29.94,South,186,0.0,0.0,84,0.00,CLR,,0.00,WeatherDisplay:10.37,2013-05-26 11:35:00,
2013-05-26 06:40:00,69.5,64.8,29.95,South,171,2.0,2.0,85,0.00,CLR,,0.00,WeatherDisplay:10.37,2013-05-26 11:40:00,
2013-05-26 06:45:00,69.7,65.0,29.95,South,171,0.0,0.3,85,0.00,CLR,,0.00,WeatherDisplay:10.37,2013-05-26 11:45:00,
2013-05-26 06:50:00,69.7,64.6,29.94,South,182,1.1,0.0,84,0.00,CLR,,0.00,WeatherDisplay:10.37,2013-05-26 11:50:00,
2013-05-26 06:55:00,69.7,65.0,29.95,South,172,0.0,0.5,85,0.00,CLR,,0.00,WeatherDisplay:10.37,2013-05-26 11:55:00,
2013-05-26 07:00:00,69.7,65.0,29.95,South,172,0.0,0.5,85,0.00,CLR,,0.00,WeatherDisplay:10.37,2013-05-26 12:00:00,
2013-05-26 07:05:00,69.9,65.2,29.95,South,177,3.5,3.5,85,0.00,CLR,,0.00,WeatherDisplay:10.37,2013-05-26 12:05:00,
2013-05-26 07:10:00,70.1,65.0,29.95,NE,40,1.1,1.1,84,0.00,CLR,,0.00,WeatherDisplay:10.37,2013-05-26 12:10:00,
2013-05-26 07:15:00,69.7,65.0,29.95,South,172,0.0,0.5,85,0.00,CLR,,0.00,WeatherDisplay:10.37,2013-05-26 12:15:00,
2013-05-26 07:20:00,69.7,65.0,29.95,South,172,0.0,0.5,85,0.00,CLR,,0.00,WeatherDisplay:10.37,2013-05-26 12:20:00,
2013-05-26 07:25:00,70.7,65.6,29.94,South,186,3.5,3.5,84,0.00,CLR,,0.00,WeatherDisplay:10.37,2013-05-26 12:25:00,
2013-05-26 07:30:00,69.7,65.0,29.95,South,172,0.0,0.5,85,0.00,CLR,,0.00,WeatherDisplay:10.37,2013-05-26 12:30:00,
2013-05-26 07:35:00,71.1,65.7,29.95,SSE,155,3.5,3.5,83,0.00,CLR,,0.00,WeatherDisplay:10.37,2013-05-26 12:35:00,
2013-05-26 07:40:00,69.7,65.0,29.95,South,172,0.0,0.5,85,0.00,CLR,,0.00,WeatherDisplay:10.37,2013-05-26 12:40:00,
2013-05-26 07:45:00,71.4,65.6,29.94,SSW,192,6.9,6.9,82,0.00,CLR,,0.00,WeatherDisplay:10.37,2013-05-26 12:45:00,
2013-05-26 07:50:00,71.6,65.8,29.94,SW,233,2.3,2.3,82,0.00,CLR,,0.00,WeatherDisplay:10.37,2013-05-26 12:50:00,
2013-05-26 07:55:00,69.7,65.0,29.95,South,172,0.0,0.5,85,0.00,CLR,,0.00,WeatherDisplay:10.37,2013-05-26 12:55:00,
2013-05-26 08:00:00,69.7,65.0,29.95,South,172,0.0,0.5,85,0.00,CLR,,0.00,WeatherDisplay:10.37,2013-05-26 13:00:00,
2013-05-26 08:05:00,71.8,65.7,29.94,SSW,200,10.4,10.4,81,0.00,CLR,,0.00,WeatherDisplay:10.37,2013-05-26 13:05:00,
2013-05-26 08:10:00,71.9,65.8,29.94,WNW,294,3.5,3.5,81,0.00,CLR,,0.00,WeatherDisplay:10.37,2013-05-26 13:10:00,
2013-05-26 08:15:00,71.9,65.8,29.94,SSE,155,3.5,3.5,81,0.00,CLR,,0.00,WeatherDisplay:10.37,2013-05-26 13:15:00,
2013-05-26 08:20:00,69.7,65.0,29.95,South,172,0.0,0.5,85,0.00,CLR,,0.00,WeatherDisplay:10.37,2013-05-26 13:20:00,
2013-05-26 08:25:00,69.7,65.0,29.95,South,172,0.0,0.5,85,0.00,CLR,,0.00,WeatherDisplay:10.37,2013-05-26 13:25:00,
2013-05-26 08:30:00,72.2,66.0,29.94,WNW,286,1.1,1.1,81,0.00,CLR,,0.00,WeatherDisplay:10.37,2013-05-26 13:30:00,
2013-05-26 08:35:00,72.4,65.9,29.94,SSE,162,5.8,5.8,80,0.00,CLR,,0.00,WeatherDisplay:10.37,2013-05-26 13:35:00,
2013-05-26 08:40:00,69.7,65.0,29.95,South,172,0.0,0.5,85,0.00,CLR,,0.00,WeatherDisplay:10.37,2013-05-26 13:40:00,
2013-05-26 08:45:00,72.7,66.2,29.95,SSE,167,5.8,5.8,80,0.00,CLR,,0.00,WeatherDisplay:10.37,2013-05-26 13:45:00,
2013-05-26 08:50:00,69.7,65.0,29.95,South,172,0.0,0.5,85,0.00,CLR,,0.00,WeatherDisplay:10.37,2013-05-26 13:50:00,
2013-05-26 08:55:00,73.2,66.3,29.95,South,183,2.3,2.3,79,0.00,CLR,,0.00,WeatherDisplay:10.37,2013-05-26 13:55:00,
2013-05-26 09:00:00,73.3,66.4,29.95,South,179,2.3,2.3,79,0.00,CLR,,0.00,WeatherDisplay:10.37,2013-05-26 14:00:00,
2013-05-26 09:05:00,69.7,65.0,29.95,South,172,0.0,0.5,85,0.00,CLR,,0.00,WeatherDisplay:10.37,2013-05-26 14:05:00,
2013-05-26 09:10:00,73.4,66.1,29.95,South,188,1.1,1.1,78,0.00,CLR,,0.00,WeatherDisplay:10.37,2013-05-26 14:10:00,
2013-05-26 09:15:00,73.5,66.2,29.95,South,178,3.5,3.5,78,0.00,CLR,,0.00,WeatherDisplay:10.37,2013-05-26 14:15:00,
2013-05-26 09:20:00,69.7,65.0,29.95,South,172,0.0,0.5,85,0.00,CLR,,0.00,WeatherDisplay:10.37,2013-05-26 14:20:00,
2013-05-26 09:25:00,69.7,65.0,29.95,South,172,0.0,0.5,85,0.00,CLR,,0.00,WeatherDisplay:10.37,2013-05-26 14:25:00,
2013-05-26 09:30:00,69.7,65.0,29.95,South,172,0.0,0.5,85,0.00,CLR,,0.00,WeatherDisplay:10.37,2013-05-26 14:30:00,
2013-05-26 09:35:00,69.7,65.0,29.95,South,172,0.0,0.5,85,0.00,CLR,,0.00,WeatherDisplay:10.37,2013-05-26 14:35:00,
2013-05-26 09:40:00,74.5,66.4,29.95,South,171,6.9,6.9,76,0.00,CLR,,0.00,WeatherDisplay:10.37,2013-05-26 14:40:00,
2013-05-26 09:45:00,69.7,65.0,29.95,South,172,0.0,0.5,85,0.00,CLR,,0.00,WeatherDisplay:10.37,2013-05-26 14:45:00,
2013-05-26 09:50:00,69.7,65.0,29.95,South,172,0.0,0.5,85,0.00,CLR,,0.00,WeatherDisplay:10.37,2013-05-26 14:50:00,
2013-05-26 09:55:00,69.7,65.0,29.95,South,172,0.0,0.5,85,0.00,CLR,,0.00,WeatherDisplay:10.37,2013-05-26 14:55:00,
2013-05-26 10:00:00,69.7,65.0,29.95,South,172,0.0,0.5,85,0.00,CLR,,0.00,WeatherDisplay:10.37,2013-05-26 15:00:00,
2013-05-26 10:05:00,74.8,66.7,29.94,South,182,3.5,3.5,76,0.00,CLR,,0.00,WeatherDisplay:10.37,2013-05-26 15:05:00,
2013-05-26 10:10:00,69.7,65.0,29.95,South,172,0.0,0.5,85,0.00,CLR,,0.00,WeatherDisplay:10.37,2013-05-26 15:10:00,
2013-05-26 10:15:00,75.2,66.7,29.94,South,190,3.5,3.5,75,0.00,CLR,,0.00,WeatherDisplay:10.37,2013-05-26 15:15:00,
2013-05-26 10:20:00,75.5,67.0,29.94,SSE,165,3.5,3.5,75,0.00,CLR,,0.00,WeatherDisplay:10.37,2013-05-26 15:20:00,
2013-05-26 10:25:00,75.7,66.8,29.94,South,169,4.6,4.6,74,0.00,CLR,,0.00,WeatherDisplay:10.37,2013-05-26 15:25:00,
2013-05-26 10:30:00,75.2,66.7,29.94,South,190,3.5,3.5,75,0.00,CLR,,0.00,WeatherDisplay:10.37,2013-05-26 15:30:00,
2013-05-26 10:35:00,76.3,67.4,29.94,WSW,241,3.5,3.5,74,0.00,CLR,,0.00,WeatherDisplay:10.37,2013-05-26 15:35:00,
2013-05-26 10:40:00,75.2,66.7,29.94,South,190,3.5,3.5,75,0.00,CLR,,0.00,WeatherDisplay:10.37,2013-05-26 15:40:00,
2013-05-26 10:45:00,77.0,67.3,29.93,South,177,5.8,5.8,72,0.00,CLR,,0.00,WeatherDisplay:10.37,2013-05-26 15:45:00,
2013-05-26 10:50:00,75.2,66.7,29.94,South,190,3.0,3.0,75,0.00,CLR,,0.00,WeatherDisplay:10.37,2013-05-26 15:50:00,
2013-05-26 10:55:00,75.2,66.7,29.94,South,190,3.0,3.0,75,0.00,CLR,,0.00,WeatherDisplay:10.37,2013-05-26 15:55:00,
2013-05-26 11:00:00,78.2,68.0,29.93,SSE,160,4.0,4.0,71,0.00,CLR,,0.00,WeatherDisplay:10.37,2013-05-26 16:00:00,
2013-05-26 11:05:00,75.2,66.7,29.94,South,190,3.5,3.5,75,0.00,CLR,,0.00,WeatherDisplay:10.37,2013-05-26 16:05:00,
2013-05-26 11:10:00,78.4,67.4,29.93,SSE,163,6.9,6.9,69,0.00,CLR,,0.00,WeatherDisplay:10.37,2013-05-26 16:10:00,
2013-05-26 11:15:00,75.2,66.7,29.94,South,190,3.5,3.5,75,0.00,CLR,,0.00,WeatherDisplay:10.37,2013-05-26 16:15:00,
2013-05-26 11:20:00,78.1,67.1,29.93,South,182,5.8,5.8,69,0.00,CLR,,0.00,WeatherDisplay:10.37,2013-05-26 16:20:00,
2013-05-26 11:25:00,78.1,67.1,29.93,South,182,5.8,5.8,69,0.00,CLR,,0.00,WeatherDisplay:10.37,2013-05-26 16:25:00,
2013-05-26 11:30:00,78.3,66.9,29.93,South,190,8.1,8.1,68,0.00,CLR,,0.00,WeatherDisplay:10.37,2013-05-26 16:30:00,
2013-05-26 11:35:00,78.1,67.1,29.93,South,182,5.8,5.8,69,0.00,CLR,,0.00,WeatherDisplay:10.37,2013-05-26 16:35:00,
2013-05-26 11:40:00,78.1,67.1,29.93,South,182,5.8,5.8,69,0.00,CLR,,0.00,WeatherDisplay:10.37,2013-05-26 16:40:00,
2013-05-26 11:45:00,78.1,67.1,29.93,South,182,5.8,5.8,69,0.00,CLR,,0.00,WeatherDisplay:10.37,2013-05-26 16:45:00,
2013-05-26 11:50:00,78.1,67.1,29.93,South,182,5.8,5.8,69,0.00,CLR,,0.00,WeatherDisplay:10.37,2013-05-26 16:50:00,
2013-05-26 11:55:00,78.1,67.1,29.93,South,182,5.8,5.8,69,0.00,CLR,,0.00,WeatherDisplay:10.37,2013-05-26 16:55:00,
2013-05-26 11:59:00,78.1,67.1,29.93,South,182,5.8,5.8,69,0.00,CLR,,0.00,WeatherDisplay:10.37,2013-05-26 16:59:00,
2013-05-26 12:04:00,78.1,67.1,29.93,South,182,5.8,5.8,69,0.00,CLR,,0.00,WeatherDisplay:10.37,2013-05-26 17:04:00,
2013-05-26 12:09:00,79.6,67.7,29.93,South,172,6.9,6.9,67,0.00,CLR,,0.00,WeatherDisplay:10.37,2013-05-26 17:09:00,
2013-05-26 12:14:00,79.3,67.4,29.93,SSE,167,0.0,4.6,67,0.00,CLR,,0.00,WeatherDisplay:10.37,2013-05-26 17:14:00,
2013-05-26 12:19:00,80.5,67.6,29.93,NW,304,7.0,7.0,65,0.00,CLR,,0.00,WeatherDisplay:10.37,2013-05-26 17:19:00,
2013-05-26 12:24:00,79.3,67.4,29.93,SSE,167,0.0,4.6,67,0.00,CLR,,0.00,WeatherDisplay:10.37,2013-05-26 17:24:00,
2013-05-26 12:29:00,80.1,67.3,29.93,South,190,5.8,5.8,65,0.00,CLR,,0.00,WeatherDisplay:10.37,2013-05-26 17:29:00,
2013-05-26 12:34:00,79.3,67.4,29.93,SSE,167,0.0,4.6,67,0.00,CLR,,0.00,WeatherDisplay:10.37,2013-05-26 17:34:00,
2013-05-26 12:39:00,80.2,67.4,29.93,SE,136,8.1,8.1,65,0.00,CLR,,0.00,WeatherDisplay:10.37,2013-05-26 17:39:00,
2013-05-26 14:01:00,83.1,67.8,29.90,South,171,6.0,6.0,60,0.00,CLR,,0.00,WeatherDisplay:10.37,2013-05-26 19:01:00,
2013-05-26 14:06:00,83.0,67.2,29.91,SSW,209,13.8,13.8,59,0.00,CLR,,0.00,WeatherDisplay:10.37,2013-05-26 19:06:00,
2013-05-26 14:11:00,83.0,67.2,29.90,South,172,6.9,6.9,59,0.00,CLR,,0.00,WeatherDisplay:10.37,2013-05-26 19:11:00,
2013-05-26 14:16:00,82.9,67.6,29.91,South,185,6.9,6.9,60,0.00,CLR,,0.00,WeatherDisplay:10.37,2013-05-26 19:16:00,
2013-05-26 14:21:00,82.8,67.0,29.91,SW,220,10.4,10.4,59,0.00,CLR,,0.00,WeatherDisplay:10.37,2013-05-26 19:21:00,
2013-05-26 14:26:00,82.6,67.3,29.91,SW,226,5.8,5.8,60,0.00,CLR,,0.00,WeatherDisplay:10.37,2013-05-26 19:26:00,
2013-05-26 14:31:00,82.6,67.3,29.90,SSW,193,8.0,8.0,60,0.00,CLR,,0.00,WeatherDisplay:10.37,2013-05-26 19:31:00,
2013-05-26 14:36:00,82.6,67.3,29.90,South,172,6.9,6.9,60,0.00,CLR,,0.00,WeatherDisplay:10.37,2013-05-26 19:36:00,
2013-05-26 14:41:00,82.5,67.2,29.90,South,171,10.4,10.4,60,0.00,CLR,,0.00,WeatherDisplay:10.37,2013-05-26 19:41:00,
2013-05-26 14:46:00,82.4,67.1,29.90,South,176,10.4,10.4,60,0.00,CLR,,0.00,WeatherDisplay:10.37,2013-05-26 19:46:00,
2013-05-26 14:51:00,82.6,67.3,29.90,SSE,161,6.9,6.9,60,0.00,CLR,,0.00,WeatherDisplay:10.37,2013-05-26 19:51:00,
2013-05-26 14:56:00,82.2,66.9,29.89,SSE,163,8.1,8.1,60,0.00,CLR,,0.00,WeatherDisplay:10.37,2013-05-26 19:56:00,
2013-05-26 15:02:00,82.3,67.0,29.89,SSE,158,5.8,5.8,60,0.00,CLR,,0.00,WeatherDisplay:10.37,2013-05-26 20:02:00,
2013-05-26 15:07:00,82.5,67.7,29.89,SSE,165,6.9,6.9,61,0.00,,,0.00,WeatherDisplay:10.37,2013-05-26 20:07:00,
2013-05-26 15:12:00,83.0,67.7,29.89,SSE,155,3.0,3.0,60,0.00,,,0.00,WeatherDisplay:10.37,2013-05-26 20:12:00,
2013-05-26 15:17:00,83.2,67.9,29.88,SSW,202,7.0,7.0,60,0.00,,,0.00,WeatherDisplay:10.37,2013-05-26 20:17:00,
2013-05-26 15:22:00,83.7,67.8,29.89,South,182,6.9,6.9,59,0.00,,,0.00,WeatherDisplay:10.37,2013-05-26 20:22:00,
2013-05-26 15:27:00,84.5,68.1,29.88,SW,225,7.0,7.0,58,0.00,,,0.00,WeatherDisplay:10.37,2013-05-26 20:27:00,
2013-05-26 15:32:00,84.4,67.0,29.88,SW,221,8.1,8.1,56,0.00,,,0.00,WeatherDisplay:10.37,2013-05-26 20:32:00,
2013-05-26 15:37:00,84.1,66.7,29.88,SSW,197,5.8,5.8,56,0.00,,,0.00,WeatherDisplay:10.37,2013-05-26 20:37:00,
2013-05-26 15:42:00,84.0,67.1,29.87,South,176,5.8,5.8,57,0.00,,,0.00,WeatherDisplay:10.37,2013-05-26 20:42:00,
2013-05-26 15:47:00,83.7,67.8,29.87,South,175,5.8,5.8,59,0.00,,,0.00,WeatherDisplay:10.37,2013-05-26 20:47:00,
2013-05-26 15:52:00,83.2,67.4,29.88,SSW,194,9.2,9.2,59,0.00,,,0.00,WeatherDisplay:10.37,2013-05-26 20:52:00,
2013-05-26 15:57:00,82.9,68.1,29.87,SSE,166,6.0,6.0,61,0.00,,,0.00,WeatherDisplay:10.37,2013-05-26 20:57:00,
2013-05-26 16:02:00,83.0,68.2,29.87,South,176,6.9,6.9,61,0.00,,,0.00,WeatherDisplay:10.37,2013-05-26 21:02:00,
2013-05-26 16:07:00,83.1,68.3,29.87,South,175,9.2,9.2,61,0.00,,,0.00,WeatherDisplay:10.37,2013-05-26 21:07:00,
2013-05-26 16:12:00,82.9,67.6,29.87,West,276,6.9,6.9,60,0.00,,,0.00,WeatherDisplay:10.37,2013-05-26 21:12:00,
2013-05-26 16:17:00,82.8,67.5,29.87,South,175,4.6,4.6,60,0.00,,,0.00,WeatherDisplay:10.37,2013-05-26 21:17:00,
2013-05-26 16:22:00,82.6,67.3,29.87,SSE,167,8.1,8.1,60,0.00,,,0.00,WeatherDisplay:10.37,2013-05-26 21:22:00,
2013-05-26 16:27:00,82.6,66.8,29.87,South,185,6.9,6.9,59,0.00,,,0.00,WeatherDisplay:10.37,2013-05-26 21:27:00,
2013-05-26 16:32:00,82.7,67.4,29.86,SSE,156,4.6,4.6,60,0.00,,,0.00,WeatherDisplay:10.37,2013-05-26 21:32:00,
2013-05-26 16:37:00,83.2,67.4,29.86,South,175,9.2,9.2,59,0.00,,,0.00,WeatherDisplay:10.37,2013-05-26 21:37:00,
2013-05-26 16:42:00,83.9,68.5,29.86,SSE,159,6.9,6.9,60,0.00,,,0.00,WeatherDisplay:10.37,2013-05-26 21:42:00,
2013-05-26 16:47:00,84.0,68.1,29.86,SSE,161,4.6,4.6,59,0.00,,,0.00,WeatherDisplay:10.37,2013-05-26 21:47:00,
2013-05-26 16:52:00,84.1,67.7,29.86,SSW,208,6.9,6.9,58,0.00,,,0.00,WeatherDisplay:10.37,2013-05-26 21:52:00,
2013-05-26 16:57:00,84.3,67.9,29.86,South,182,3.5,3.5,58,0.00,,,0.00,WeatherDisplay:10.37,2013-05-26 21:57:00,
2013-05-26 17:02:00,84.6,67.7,29.86,SSW,198,5.8,5.8,57,0.00,,,0.00,WeatherDisplay:10.37,2013-05-26 22:02:00,
2013-05-26 17:07:00,84.4,67.5,29.85,SE,124,6.0,6.0,57,0.00,,,0.00,WeatherDisplay:10.37,2013-05-26 22:07:00,
2013-05-26 17:12:00,84.1,68.2,29.85,SSE,159,9.2,9.2,59,0.00,,,0.00,WeatherDisplay:10.37,2013-05-26 22:12:00,
2013-05-26 17:17:00,84.1,67.7,29.85,SSW,192,6.9,6.9,58,0.00,,,0.00,WeatherDisplay:10.37,2013-05-26 22:17:00,
2013-05-26 17:22:00,83.8,67.9,29.85,WSW,255,8.1,8.1,59,0.00,,,0.00,WeatherDisplay:10.37,2013-05-26 22:22:00,
2013-05-26 17:27:00,83.5,67.7,29.85,South,183,9.2,9.2,59,0.00,,,0.00,WeatherDisplay:10.37,2013-05-26 22:27:00,
2013-05-26 17:32:00,83.3,68.0,29.84,SSE,150,4.6,4.6,60,0.00,,,0.00,WeatherDisplay:10.37,2013-05-26 22:32:00,
2013-05-26 17:37:00,83.5,67.7,29.85,SSE,159,9.2,9.2,59,0.00,,,0.00,WeatherDisplay:10.37,2013-05-26 22:37:00,
2013-05-26 17:42:00,83.8,67.4,29.84,SW,227,11.5,11.5,58,0.00,,,0.00,WeatherDisplay:10.37,2013-05-26 22:42:00,
2013-05-26 17:47:00,83.6,67.3,29.84,SSE,165,8.1,8.1,58,0.00,,,0.00,WeatherDisplay:10.37,2013-05-26 22:47:00,
2013-05-26 17:52:00,83.2,67.4,29.84,South,188,6.9,6.9,59,0.00,,,0.00,WeatherDisplay:10.37,2013-05-26 22:52:00,
2013-05-26 17:57:00,83.0,66.7,29.84,West,274,8.1,8.1,58,0.00,,,0.00,WeatherDisplay:10.37,2013-05-26 22:57:00,
2013-05-26 18:03:00,82.7,66.9,29.84,SSE,166,6.9,6.9,59,0.00,,,0.00,WeatherDisplay:10.37,2013-05-26 23:03:00,
2013-05-26 18:08:00,82.4,67.1,29.84,SSW,193,4.6,4.6,60,0.00,,,0.00,WeatherDisplay:10.37,2013-05-26 23:08:00,
2013-05-26 18:13:00,82.5,67.7,29.84,South,184,3.5,3.5,61,0.00,,,0.00,WeatherDisplay:10.37,2013-05-26 23:13:00,
2013-05-26 18:18:00,82.4,67.6,29.84,South,182,6.0,6.0,61,0.00,,,0.00,WeatherDisplay:10.37,2013-05-26 23:18:00,
2013-05-26 18:23:00,82.3,67.5,29.84,SSE,159,8.1,8.1,61,0.00,,,0.00,WeatherDisplay:10.37,2013-05-26 23:23:00,
2013-05-26 18:28:00,82.0,67.2,29.83,SSE,148,8.1,8.1,61,0.00,,,0.00,WeatherDisplay:10.37,2013-05-26 23:28:00,
2013-05-26 18:33:00,81.8,67.0,29.83,SSE,167,8.1,8.1,61,0.00,,,0.00,WeatherDisplay:10.37,2013-05-26 23:33:00,
2013-05-26 18:38:00,81.9,67.6,29.83,SSW,210,2.3,2.4,62,0.00,,,0.00,WeatherDisplay:10.37,2013-05-26 23:38:00,
2013-05-26 18:43:00,82.0,67.2,29.83,SSW,200,8.1,8.1,61,0.00,,,0.00,WeatherDisplay:10.37,2013-05-26 23:43:00,
2013-05-26 18:48:00,81.7,67.4,29.83,SSW,196,8.1,8.1,62,0.00,,,0.00,WeatherDisplay:10.37,2013-05-26 23:48:00,
2013-05-26 18:53:00,81.6,67.3,29.83,SSW,192,6.9,6.9,62,0.00,,,0.00,WeatherDisplay:10.37,2013-05-26 23:53:00,
2013-05-26 18:58:00,81.5,67.2,29.83,SSW,202,4.6,4.6,62,0.00,,,0.00,WeatherDisplay:10.37,2013-05-26 23:58:00,
2013-05-26 19:03:00,81.4,67.1,29.82,NNW,338,5.8,5.8,62,0.00,,,0.00,WeatherDisplay:10.37,2013-05-27 00:03:00,
2013-05-26 19:08:00,81.2,67.4,29.83,SSW,193,3.0,3.0,63,0.00,,,0.00,WeatherDisplay:10.37,2013-05-27 00:08:00,
2013-05-26 19:13:00,81.2,67.4,29.82,South,171,3.5,3.5,63,0.00,,,0.00,WeatherDisplay:10.37,2013-05-27 00:13:00,
2013-05-26 19:18:00,81.3,67.5,29.82,SSE,148,4.6,4.6,63,0.00,,,0.00,WeatherDisplay:10.37,2013-05-27 00:18:00,
2013-05-26 19:23:00,81.4,67.6,29.82,South,173,4.6,4.6,63,0.00,,,0.00,WeatherDisplay:10.37,2013-05-27 00:23:00,
2013-05-26 19:28:00,81.5,67.7,29.82,South,176,6.9,6.9,63,0.00,,,0.00,WeatherDisplay:10.37,2013-05-27 00:28:00,
2013-05-26 19:33:00,81.2,67.4,29.82,South,180,3.5,3.5,63,0.00,,,0.00,WeatherDisplay:10.37,2013-05-27 00:33:00,
2013-05-26 19:38:00,81.3,68.0,29.82,SSE,163,3.5,3.5,64,0.00,,,0.00,WeatherDisplay:10.37,2013-05-27 00:38:00,
2013-05-26 19:43:00,81.4,67.6,29.82,SW,229,3.5,3.5,63,0.00,,,0.00,WeatherDisplay:10.37,2013-05-27 00:43:00,
2013-05-26 19:48:00,81.5,67.7,29.82,South,186,4.6,4.6,63,0.00,,,0.00,WeatherDisplay:10.37,2013-05-27 00:48:00,
2013-05-26 19:53:00,81.3,68.0,29.83,SSE,168,3.5,3.5,64,0.00,,,0.00,WeatherDisplay:10.37,2013-05-27 00:53:00,
2013-05-26 19:58:00,81.2,67.9,29.83,West,259,3.5,3.5,64,0.00,,,0.00,WeatherDisplay:10.37,2013-05-27 00:58:00,
2013-05-26 20:03:00,81.2,67.9,29.83,ESE,123,3.5,3.5,64,0.00,CLR,,0.00,WeatherDisplay:10.37,2013-05-27 01:03:00,
2013-05-26 20:08:00,81.1,67.8,29.83,South,191,8.1,8.1,64,0.00,CLR,,0.00,WeatherDisplay:10.37,2013-05-27 01:08:00,
2013-05-26 20:13:00,80.8,67.5,29.83,South,191,5.0,5.0,64,0.00,CLR,,0.00,WeatherDisplay:10.37,2013-05-27 01:13:00,
2013-05-26 20:18:00,80.6,67.7,29.83,South,169,4.0,4.0,65,0.00,CLR,,0.00,WeatherDisplay:10.37,2013-05-27 01:18:00,
2013-05-26 20:23:00,80.3,67.5,29.84,SSE,156,9.2,9.2,65,0.00,CLR,,0.00,WeatherDisplay:10.37,2013-05-27 01:23:00,
2013-05-26 20:28:00,80.2,67.4,29.84,South,178,5.8,5.8,65,0.00,CLR,,0.00,WeatherDisplay:10.37,2013-05-27 01:28:00,
2013-05-26 20:33:00,79.9,67.5,29.83,South,175,3.5,3.5,66,0.00,CLR,,0.00,WeatherDisplay:10.37,2013-05-27 01:33:00,
2013-05-26 20:38:00,79.7,67.3,29.83,South,178,9.2,9.2,66,0.00,CLR,,0.00,WeatherDisplay:10.37,2013-05-27 01:38:00,
2013-05-26 20:43:00,79.4,67.0,29.83,South,183,4.0,4.4,66,0.00,CLR,,0.00,WeatherDisplay:10.37,2013-05-27 01:43:00,
2013-05-26 20:48:00,79.2,67.3,29.83,SSW,210,3.5,3.5,67,0.00,CLR,,0.00,WeatherDisplay:10.37,2013-05-27 01:48:00,
2013-05-26 20:53:00,79.1,67.2,29.83,South,182,6.9,6.9,67,0.00,CLR,,0.00,WeatherDisplay:10.37,2013-05-27 01:53:00,
2013-05-26 20:58:00,79.0,67.5,29.83,South,190,3.5,3.5,68,0.00,CLR,,0.00,WeatherDisplay:10.37,2013-05-27 01:58:00,
2013-05-26 21:03:00,78.8,67.3,29.84,SSW,196,3.5,3.5,68,0.00,,,0.00,WeatherDisplay:10.37,2013-05-27 02:03:00,
2013-05-26 21:08:00,78.7,67.2,29.84,SSW,202,5.8,5.8,68,0.00,,,0.00,WeatherDisplay:10.37,2013-05-27 02:08:00,
2013-05-26 21:13:00,78.6,67.2,29.84,South,186,1.1,1.1,68,0.00,,,0.00,WeatherDisplay:10.37,2013-05-27 02:13:00,
2013-05-26 21:18:00,78.5,67.1,29.84,South,188,4.6,0.0,68,0.00,,,0.00,WeatherDisplay:10.37,2013-05-27 02:18:00,
2013-05-26 21:23:00,78.4,67.0,29.84,South,186,5.8,5.8,68,0.00,,,0.00,WeatherDisplay:10.37,2013-05-27 02:23:00,
2013-05-26 21:28:00,78.3,67.3,29.85,WNW,302,3.0,3.0,69,0.00,,,0.00,WeatherDisplay:10.37,2013-05-27 02:28:00,
2013-05-26 21:33:00,78.2,67.2,29.85,South,175,4.6,4.6,69,0.00,,,0.00,WeatherDisplay:10.37,2013-05-27 02:33:00,
2013-05-26 21:38:00,78.0,67.0,29.85,SW,233,2.3,2.3,69,0.00,,,0.00,WeatherDisplay:10.37,2013-05-27 02:38:00,
2013-05-26 21:43:00,77.9,66.9,29.85,SSE,167,3.5,3.5,69,0.00,,,0.00,WeatherDisplay:10.37,2013-05-27 02:43:00,
2013-05-26 21:48:00,77.7,67.1,29.86,SSW,202,3.5,3.5,70,0.00,,,0.00,WeatherDisplay:10.37,2013-05-27 02:48:00,
2013-05-26 21:53:00,77.6,67.0,29.86,SE,146,4.0,4.0,70,0.00,,,0.00,WeatherDisplay:10.37,2013-05-27 02:53:00,
2013-05-26 21:59:00,77.6,66.6,29.86,SSE,162,5.8,5.8,69,0.00,,,0.00,WeatherDisplay:10.37,2013-05-27 02:59:00,
2013-05-26 22:04:00,77.5,66.9,29.87,ENE,65,3.0,3.0,70,0.00,,,0.00,WeatherDisplay:10.37,2013-05-27 03:04:00,
2013-05-26 22:09:00,77.4,66.8,29.87,South,182,1.1,1.1,70,0.00,,,0.00,WeatherDisplay:10.37,2013-05-27 03:09:00,
2013-05-26 22:14:00,77.4,66.8,29.87,South,169,6.9,6.9,70,0.00,,,0.00,WeatherDisplay:10.37,2013-05-27 03:14:00,
2013-05-26 22:19:00,77.3,66.7,29.88,South,179,2.3,2.3,70,0.00,,,0.00,WeatherDisplay:10.37,2013-05-27 03:19:00,
2013-05-26 22:24:00,77.3,66.7,29.88,West,265,1.1,1.1,70,0.00,,,0.00,WeatherDisplay:10.37,2013-05-27 03:24:00,
2013-05-26 22:29:00,77.3,66.7,29.88,SSW,202,2.3,2.3,70,0.00,,,0.00,WeatherDisplay:10.37,2013-05-27 03:29:00,
2013-05-26 22:34:00,77.2,66.7,29.88,SSE,157,1.1,1.1,70,0.00,,,0.00,WeatherDisplay:10.37,2013-05-27 03:34:00,
2013-05-26 22:39:00,77.1,66.6,29.88,SSE,163,3.5,3.5,70,0.00,,,0.00,WeatherDisplay:10.37,2013-05-27 03:39:00,
2013-05-26 22:44:00,77.0,66.5,29.87,South,185,2.3,2.3,70,0.00,,,0.00,WeatherDisplay:10.37,2013-05-27 03:44:00,
2013-05-26 22:49:00,76.9,66.4,29.87,SSE,156,2.3,2.3,70,0.00,,,0.00,WeatherDisplay:10.37,2013-05-27 03:49:00,
2013-05-26 22:54:00,76.7,66.2,29.87,SSE,167,4.6,4.6,70,0.00,,,0.00,WeatherDisplay:10.37,2013-05-27 03:54:00,
2013-05-26 22:59:00,76.7,66.2,29.88,South,185,3.5,3.5,70,0.00,,,0.00,WeatherDisplay:10.37,2013-05-27 03:59:00,
2013-05-26 23:01:00,76.6,66.1,29.87,South,180,1.1,1.1,70,0.00,,,0.00,WeatherDisplay:10.37,2013-05-27 04:01:00,
2013-05-26 23:06:00,76.5,66.0,29.87,South,190,4.6,4.6,70,0.00,,,0.00,WeatherDisplay:10.37,2013-05-27 04:06:00,
2013-05-26 23:11:00,76.5,66.0,29.87,SSE,153,1.1,1.1,70,0.00,,,0.00,WeatherDisplay:10.37,2013-05-27 04:11:00,
2013-05-26 23:16:00,76.3,65.8,29.86,SE,136,3.5,3.5,70,0.00,,,0.00,WeatherDisplay:10.37,2013-05-27 04:16:00,
2013-05-26 23:21:00,76.1,65.6,29.86,South,184,3.5,3.5,70,0.00,,,0.00,WeatherDisplay:10.37,2013-05-27 04:21:00,
2013-05-26 23:26:00,76.1,65.6,29.86,SSE,163,3.5,3.5,70,0.00,,,0.00,WeatherDisplay:10.37,2013-05-27 04:26:00,
2013-05-26 23:31:00,76.0,65.5,29.86,West,277,1.1,1.1,70,0.00,,,0.00,WeatherDisplay:10.37,2013-05-27 04:31:00,
2013-05-26 23:36:00,75.9,65.4,29.86,South,179,2.3,2.3,70,0.00,,,0.00,WeatherDisplay:10.37,2013-05-27 04:36:00,
2013-05-26 23:41:00,75.8,65.3,29.85,South,170,0.0,0.0,70,0.00,,,0.00,WeatherDisplay:10.37,2013-05-27 04:41:00,
2013-05-26 23:46:00,75.6,65.1,29.85,South,169,3.5,3.5,70,0.00,,,0.00,WeatherDisplay:10.37,2013-05-27 04:46:00,
2013-05-26 23:51:00,75.5,65.0,29.85,WSW,243,1.1,1.1,70,0.00,,,0.00,WeatherDisplay:10.37,2013-05-27 04:51:00,
2013-05-26 23:56:00,75.3,65.2,29.85,South,186,3.5,3.5,71,0.00,,,0.00,WeatherDisplay:10.37,2013-05-27 04:56:00,